sensor_id;sensor_type;location;lat;lon;timestamp;P1;durP1;ratioP1;P2;durP2;ratioP2
75737;SDS011;64356;45.638;13.764;2023-05-10T00:02:06;2.65;;;2.28;;
75737;SDS011;64356;45.638;13.764;2023-05-10T00:04:31;4.43;;;2.45;;
75737;SDS011;64356;45.638;13.764;2023-05-10T00:06:57;6.35;;;2.33;;
75737;SDS011;64356;45.638;13.764;2023-05-10T00:09:23;6.80;;;2.45;;
75737;SDS011;64356;45.638;13.764;2023-05-10T00:11:49;2.95;;;2.03;;
75737;SDS011;64356;45.638;13.764;2023-05-10T00:14:14;6.63;;;2.80;;
75737;SDS011;64356;45.638;13.764;2023-05-10T00:16:40;9.38;;;3.00;;
75737;SDS011;64356;45.638;13.764;2023-05-10T00:19:06;4.90;;;2.45;;
75737;SDS011;64356;45.638;13.764;2023-05-10T00:21:31;5.80;;;2.35;;
75737;SDS011;64356;45.638;13.764;2023-05-10T00:23:58;3.67;;;2.53;;
75737;SDS011;64356;45.638;13.764;2023-05-10T00:26:24;6.47;;;2.47;;
75737;SDS011;64356;45.638;13.764;2023-05-10T00:28:50;5.95;;;2.58;;
75737;SDS011;64356;45.638;13.764;2023-05-10T00:31:16;5.15;;;2.35;;
75737;SDS011;64356;45.638;13.764;2023-05-10T00:33:41;3.45;;;2.33;;
75737;SDS011;64356;45.638;13.764;2023-05-10T00:36:07;7.25;;;2.65;;
75737;SDS011;64356;45.638;13.764;2023-05-10T00:38:33;3.88;;;2.47;;
75737;SDS011;64356;45.638;13.764;2023-05-10T00:40:59;4.70;;;2.13;;
75737;SDS011;64356;45.638;13.764;2023-05-10T00:43:25;5.63;;;2.63;;
75737;SDS011;64356;45.638;13.764;2023-05-10T00:45:50;5.22;;;2.72;;
75737;SDS011;64356;45.638;13.764;2023-05-10T00:48:17;8.05;;;2.58;;
75737;SDS011;64356;45.638;13.764;2023-05-10T00:50:42;3.33;;;2.45;;
75737;SDS011;64356;45.638;13.764;2023-05-10T00:53:08;4.43;;;2.20;;
75737;SDS011;64356;45.638;13.764;2023-05-10T00:55:35;4.78;;;2.33;;
75737;SDS011;64356;45.638;13.764;2023-05-10T00:58:01;3.92;;;2.42;;
75737;SDS011;64356;45.638;13.764;2023-05-10T01:00:27;3.63;;;2.58;;
75737;SDS011;64356;45.638;13.764;2023-05-10T01:02:53;5.13;;;2.35;;
75737;SDS011;64356;45.638;13.764;2023-05-10T01:05:19;3.05;;;2.60;;
75737;SDS011;64356;45.638;13.764;2023-05-10T01:07:44;5.82;;;2.40;;
75737;SDS011;64356;45.638;13.764;2023-05-10T01:10:10;4.43;;;2.50;;
75737;SDS011;64356;45.638;13.764;2023-05-10T01:12:37;4.15;;;2.55;;
75737;SDS011;64356;45.638;13.764;2023-05-10T01:15:05;6.18;;;2.30;;
75737;SDS011;64356;45.638;13.764;2023-05-10T01:17:33;4.47;;;2.80;;
75737;SDS011;64356;45.638;13.764;2023-05-10T01:20:02;3.90;;;2.75;;
75737;SDS011;64356;45.638;13.764;2023-05-10T01:43:19;4.90;;;2.35;;
75737;SDS011;64356;45.638;13.764;2023-05-10T01:48:22;2.58;;;2.17;;
75737;SDS011;64356;45.638;13.764;2023-05-10T01:50:52;7.88;;;2.30;;
75737;SDS011;64356;45.638;13.764;2023-05-10T01:53:19;5.60;;;2.92;;
75737;SDS011;64356;45.638;13.764;2023-05-10T01:55:48;3.50;;;2.30;;
75737;SDS011;64356;45.638;13.764;2023-05-10T01:58:23;2.67;;;2.38;;
75737;SDS011;64356;45.638;13.764;2023-05-10T02:00:53;2.70;;;2.28;;
75737;SDS011;64356;45.638;13.764;2023-05-10T02:03:23;3.35;;;2.40;;
75737;SDS011;64356;45.638;13.764;2023-05-10T02:05:51;4.72;;;2.30;;
75737;SDS011;64356;45.638;13.764;2023-05-10T02:08:18;3.95;;;2.55;;
75737;SDS011;64356;45.638;13.764;2023-05-10T02:10:45;3.40;;;2.10;;
75737;SDS011;64356;45.638;13.764;2023-05-10T02:13:12;2.58;;;1.98;;
75737;SDS011;64356;45.638;13.764;2023-05-10T02:15:40;2.83;;;2.35;;
75737;SDS011;64356;45.638;13.764;2023-05-10T02:18:07;3.55;;;1.98;;
75737;SDS011;64356;45.638;13.764;2023-05-10T02:20:35;4.88;;;2.35;;
75737;SDS011;64356;45.638;13.764;2023-05-10T02:23:02;2.42;;;2.22;;
75737;SDS011;64356;45.638;13.764;2023-05-10T02:25:29;2.60;;;2.28;;
75737;SDS011;64356;45.638;13.764;2023-05-10T02:27:57;3.63;;;2.38;;
75737;SDS011;64356;45.638;13.764;2023-05-10T02:30:26;2.78;;;2.50;;
75737;SDS011;64356;45.638;13.764;2023-05-10T02:32:53;2.75;;;2.30;;
75737;SDS011;64356;45.638;13.764;2023-05-10T02:35:20;3.00;;;2.50;;
75737;SDS011;64356;45.638;13.764;2023-05-10T02:37:47;4.32;;;2.33;;
75737;SDS011;64356;45.638;13.764;2023-05-10T02:40:13;3.53;;;2.58;;
75737;SDS011;64356;45.638;13.764;2023-05-10T02:42:42;4.57;;;2.20;;
75737;SDS011;64356;45.638;13.764;2023-05-10T02:45:11;3.45;;;2.28;;
75737;SDS011;64356;45.638;13.764;2023-05-10T02:47:40;4.15;;;2.38;;
75737;SDS011;64356;45.638;13.764;2023-05-10T02:50:06;3.25;;;2.28;;
75737;SDS011;64356;45.638;13.764;2023-05-10T02:52:37;2.95;;;2.65;;
75737;SDS011;64356;45.638;13.764;2023-05-10T02:55:16;2.50;;;2.30;;
75737;SDS011;64356;45.638;13.764;2023-05-10T02:57:48;3.05;;;2.10;;
75737;SDS011;64356;45.638;13.764;2023-05-10T03:00:19;3.03;;;2.10;;
75737;SDS011;64356;45.638;13.764;2023-05-10T03:02:45;2.75;;;2.08;;
75737;SDS011;64356;45.638;13.764;2023-05-10T03:05:11;3.00;;;2.53;;
75737;SDS011;64356;45.638;13.764;2023-05-10T03:07:37;2.97;;;2.47;;
75737;SDS011;64356;45.638;13.764;2023-05-10T03:10:03;2.63;;;2.40;;
75737;SDS011;64356;45.638;13.764;2023-05-10T03:12:47;4.35;;;2.63;;
75737;SDS011;64356;45.638;13.764;2023-05-10T03:18:11;3.72;;;2.55;;
75737;SDS011;64356;45.638;13.764;2023-05-10T03:20:42;2.95;;;2.00;;
75737;SDS011;64356;45.638;13.764;2023-05-10T03:25:59;6.00;;;2.70;;
75737;SDS011;64356;45.638;13.764;2023-05-10T03:28:26;2.42;;;2.22;;
75737;SDS011;64356;45.638;13.764;2023-05-10T03:30:53;3.97;;;2.63;;
75737;SDS011;64356;45.638;13.764;2023-05-10T03:33:19;5.63;;;2.58;;
75737;SDS011;64356;45.638;13.764;2023-05-10T03:35:45;4.60;;;2.70;;
75737;SDS011;64356;45.638;13.764;2023-05-10T03:38:14;3.67;;;2.95;;
75737;SDS011;64356;45.638;13.764;2023-05-10T03:40:40;4.10;;;2.38;;
75737;SDS011;64356;45.638;13.764;2023-05-10T03:43:06;3.17;;;2.20;;
75737;SDS011;64356;45.638;13.764;2023-05-10T03:45:31;5.18;;;2.30;;
75737;SDS011;64356;45.638;13.764;2023-05-10T03:47:57;3.42;;;1.95;;
75737;SDS011;64356;45.638;13.764;2023-05-10T03:50:23;3.13;;;2.33;;
75737;SDS011;64356;45.638;13.764;2023-05-10T03:52:49;2.75;;;2.10;;
75737;SDS011;64356;45.638;13.764;2023-05-10T03:55:15;2.97;;;2.70;;
75737;SDS011;64356;45.638;13.764;2023-05-10T03:57:41;5.78;;;2.25;;
75737;SDS011;64356;45.638;13.764;2023-05-10T04:00:07;2.80;;;2.10;;
75737;SDS011;64356;45.638;13.764;2023-05-10T04:02:33;2.63;;;2.22;;
75737;SDS011;64356;45.638;13.764;2023-05-10T04:04:59;3.47;;;2.13;;
75737;SDS011;64356;45.638;13.764;2023-05-10T04:07:25;2.70;;;2.50;;
75737;SDS011;64356;45.638;13.764;2023-05-10T04:09:51;3.70;;;2.45;;
75737;SDS011;64356;45.638;13.764;2023-05-10T04:12:17;2.72;;;2.40;;
75737;SDS011;64356;45.638;13.764;2023-05-10T04:14:43;3.28;;;2.20;;
75737;SDS011;64356;45.638;13.764;2023-05-10T04:17:09;3.67;;;2.70;;
75737;SDS011;64356;45.638;13.764;2023-05-10T04:19:35;4.30;;;2.67;;
75737;SDS011;64356;45.638;13.764;2023-05-10T04:22:01;2.63;;;2.40;;
75737;SDS011;64356;45.638;13.764;2023-05-10T04:24:28;2.10;;;1.90;;
75737;SDS011;64356;45.638;13.764;2023-05-10T04:26:54;4.55;;;2.40;;
75737;SDS011;64356;45.638;13.764;2023-05-10T04:29:20;2.22;;;2.03;;
75737;SDS011;64356;45.638;13.764;2023-05-10T04:31:46;2.78;;;2.15;;
75737;SDS011;64356;45.638;13.764;2023-05-10T04:34:11;2.97;;;2.60;;
75737;SDS011;64356;45.638;13.764;2023-05-10T04:36:37;5.32;;;2.67;;
75737;SDS011;64356;45.638;13.764;2023-05-10T04:39:03;4.60;;;2.78;;
75737;SDS011;64356;45.638;13.764;2023-05-10T04:41:29;2.65;;;2.25;;
75737;SDS011;64356;45.638;13.764;2023-05-10T04:43:55;3.55;;;2.50;;
75737;SDS011;64356;45.638;13.764;2023-05-10T04:46:21;7.88;;;3.28;;
75737;SDS011;64356;45.638;13.764;2023-05-10T04:48:46;2.72;;;2.47;;
75737;SDS011;64356;45.638;13.764;2023-05-10T04:51:12;3.70;;;2.33;;
75737;SDS011;64356;45.638;13.764;2023-05-10T04:53:38;2.50;;;2.30;;
75737;SDS011;64356;45.638;13.764;2023-05-10T04:56:04;3.63;;;2.85;;
75737;SDS011;64356;45.638;13.764;2023-05-10T04:58:30;3.13;;;2.35;;
75737;SDS011;64356;45.638;13.764;2023-05-10T05:00:55;2.65;;;2.45;;
75737;SDS011;64356;45.638;13.764;2023-05-10T05:03:21;2.33;;;2.10;;
75737;SDS011;64356;45.638;13.764;2023-05-10T05:05:48;4.53;;;2.78;;
75737;SDS011;64356;45.638;13.764;2023-05-10T05:08:14;4.63;;;2.35;;
75737;SDS011;64356;45.638;13.764;2023-05-10T05:10:39;3.97;;;2.40;;
75737;SDS011;64356;45.638;13.764;2023-05-10T05:13:05;3.70;;;2.50;;
75737;SDS011;64356;45.638;13.764;2023-05-10T05:15:31;5.72;;;2.40;;
75737;SDS011;64356;45.638;13.764;2023-05-10T05:17:57;4.40;;;2.65;;
75737;SDS011;64356;45.638;13.764;2023-05-10T05:20:22;5.07;;;1.88;;
75737;SDS011;64356;45.638;13.764;2023-05-10T05:22:48;3.25;;;2.25;;
75737;SDS011;64356;45.638;13.764;2023-05-10T05:25:14;8.85;;;2.33;;
75737;SDS011;64356;45.638;13.764;2023-05-10T05:27:40;2.40;;;2.20;;
75737;SDS011;64356;45.638;13.764;2023-05-10T05:30:06;4.68;;;2.67;;
75737;SDS011;64356;45.638;13.764;2023-05-10T05:32:32;3.45;;;2.30;;
75737;SDS011;64356;45.638;13.764;2023-05-10T05:34:58;5.70;;;2.00;;
75737;SDS011;64356;45.638;13.764;2023-05-10T05:37:24;5.80;;;2.38;;
75737;SDS011;64356;45.638;13.764;2023-05-10T05:39:50;4.00;;;2.45;;
75737;SDS011;64356;45.638;13.764;2023-05-10T05:42:16;2.70;;;2.30;;
75737;SDS011;64356;45.638;13.764;2023-05-10T05:44:43;3.00;;;1.95;;
75737;SDS011;64356;45.638;13.764;2023-05-10T05:47:09;3.63;;;2.17;;
75737;SDS011;64356;45.638;13.764;2023-05-10T05:49:35;7.25;;;2.45;;
75737;SDS011;64356;45.638;13.764;2023-05-10T05:52:01;7.25;;;2.53;;
75737;SDS011;64356;45.638;13.764;2023-05-10T05:54:28;11.82;;;2.95;;
75737;SDS011;64356;45.638;13.764;2023-05-10T05:56:55;13.43;;;2.50;;
75737;SDS011;64356;45.638;13.764;2023-05-10T05:59:21;23.38;;;3.65;;
75737;SDS011;64356;45.638;13.764;2023-05-10T06:01:47;11.23;;;2.88;;
75737;SDS011;64356;45.638;13.764;2023-05-10T06:04:13;7.28;;;2.85;;
75737;SDS011;64356;45.638;13.764;2023-05-10T06:06:39;8.40;;;2.78;;
75737;SDS011;64356;45.638;13.764;2023-05-10T06:09:05;13.25;;;2.75;;
75737;SDS011;64356;45.638;13.764;2023-05-10T06:11:31;11.27;;;3.47;;
75737;SDS011;64356;45.638;13.764;2023-05-10T06:14:00;6.20;;;3.08;;
75737;SDS011;64356;45.638;13.764;2023-05-10T06:16:26;10.38;;;4.40;;
75737;SDS011;64356;45.638;13.764;2023-05-10T06:18:52;4.75;;;3.03;;
75737;SDS011;64356;45.638;13.764;2023-05-10T06:21:18;11.27;;;2.88;;
75737;SDS011;64356;45.638;13.764;2023-05-10T06:23:44;6.45;;;2.92;;
75737;SDS011;64356;45.638;13.764;2023-05-10T06:26:10;8.38;;;3.10;;
75737;SDS011;64356;45.638;13.764;2023-05-10T06:28:36;9.40;;;3.30;;
75737;SDS011;64356;45.638;13.764;2023-05-10T06:31:04;12.10;;;3.03;;
75737;SDS011;64356;45.638;13.764;2023-05-10T06:33:30;5.20;;;2.72;;
75737;SDS011;64356;45.638;13.764;2023-05-10T06:35:56;11.05;;;3.10;;
75737;SDS011;64356;45.638;13.764;2023-05-10T06:38:22;8.68;;;2.75;;
75737;SDS011;64356;45.638;13.764;2023-05-10T06:40:48;12.07;;;3.28;;
75737;SDS011;64356;45.638;13.764;2023-05-10T06:43:13;13.75;;;3.15;;
75737;SDS011;64356;45.638;13.764;2023-05-10T06:45:39;9.65;;;2.80;;
75737;SDS011;64356;45.638;13.764;2023-05-10T06:48:05;8.25;;;2.42;;
75737;SDS011;64356;45.638;13.764;2023-05-10T06:50:31;11.60;;;3.67;;
75737;SDS011;64356;45.638;13.764;2023-05-10T06:52:58;9.85;;;2.90;;
75737;SDS011;64356;45.638;13.764;2023-05-10T06:55:24;9.80;;;2.60;;
75737;SDS011;64356;45.638;13.764;2023-05-10T06:57:50;8.73;;;2.60;;
75737;SDS011;64356;45.638;13.764;2023-05-10T07:00:16;18.70;;;3.58;;
75737;SDS011;64356;45.638;13.764;2023-05-10T07:02:43;16.63;;;2.70;;
75737;SDS011;64356;45.638;13.764;2023-05-10T07:05:08;10.35;;;2.95;;
75737;SDS011;64356;45.638;13.764;2023-05-10T07:07:34;10.40;;;3.20;;
75737;SDS011;64356;45.638;13.764;2023-05-10T07:10:00;10.98;;;2.72;;
75737;SDS011;64356;45.638;13.764;2023-05-10T07:12:26;18.63;;;3.00;;
75737;SDS011;64356;45.638;13.764;2023-05-10T07:14:51;13.65;;;4.13;;
75737;SDS011;64356;45.638;13.764;2023-05-10T07:17:17;23.42;;;3.88;;
75737;SDS011;64356;45.638;13.764;2023-05-10T07:19:43;21.58;;;3.58;;
75737;SDS011;64356;45.638;13.764;2023-05-10T07:22:09;20.77;;;3.47;;
75737;SDS011;64356;45.638;13.764;2023-05-10T07:24:34;8.30;;;2.95;;
75737;SDS011;64356;45.638;13.764;2023-05-10T07:27:00;20.70;;;2.90;;
75737;SDS011;64356;45.638;13.764;2023-05-10T07:29:26;18.17;;;3.33;;
75737;SDS011;64356;45.638;13.764;2023-05-10T07:31:52;22.17;;;4.78;;
75737;SDS011;64356;45.638;13.764;2023-05-10T07:34:18;21.67;;;4.22;;
75737;SDS011;64356;45.638;13.764;2023-05-10T07:36:44;18.23;;;3.97;;
75737;SDS011;64356;45.638;13.764;2023-05-10T07:39:09;35.83;;;3.88;;
75737;SDS011;64356;45.638;13.764;2023-05-10T07:41:35;22.42;;;4.05;;
75737;SDS011;64356;45.638;13.764;2023-05-10T07:44:02;18.23;;;3.70;;
75737;SDS011;64356;45.638;13.764;2023-05-10T07:46:28;26.15;;;3.72;;
75737;SDS011;64356;45.638;13.764;2023-05-10T07:48:54;22.52;;;4.05;;
75737;SDS011;64356;45.638;13.764;2023-05-10T07:51:20;24.48;;;4.20;;
75737;SDS011;64356;45.638;13.764;2023-05-10T07:53:46;11.35;;;4.00;;
75737;SDS011;64356;45.638;13.764;2023-05-10T07:56:25;10.18;;;3.20;;
75737;SDS011;64356;45.638;13.764;2023-05-10T07:59:00;13.35;;;3.53;;
75737;SDS011;64356;45.638;13.764;2023-05-10T08:01:29;14.07;;;3.90;;
75737;SDS011;64356;45.638;13.764;2023-05-10T08:03:57;47.95;;;5.32;;
75737;SDS011;64356;45.638;13.764;2023-05-10T08:06:23;35.20;;;5.57;;
75737;SDS011;64356;45.638;13.764;2023-05-10T08:08:50;12.35;;;3.92;;
75737;SDS011;64356;45.638;13.764;2023-05-10T08:11:17;34.33;;;4.50;;
75737;SDS011;64356;45.638;13.764;2023-05-10T08:13:45;21.73;;;4.88;;
75737;SDS011;64356;45.638;13.764;2023-05-10T08:16:12;60.03;;;6.95;;
75737;SDS011;64356;45.638;13.764;2023-05-10T08:18:38;102.38;;;11.38;;
75737;SDS011;64356;45.638;13.764;2023-05-10T08:21:05;45.00;;;6.13;;
75737;SDS011;64356;45.638;13.764;2023-05-10T08:23:31;27.75;;;4.65;;
75737;SDS011;64356;45.638;13.764;2023-05-10T08:25:57;23.52;;;4.75;;
75737;SDS011;64356;45.638;13.764;2023-05-10T08:28:22;15.15;;;4.30;;
75737;SDS011;64356;45.638;13.764;2023-05-10T08:30:49;15.63;;;3.30;;
75737;SDS011;64356;45.638;13.764;2023-05-10T08:33:15;21.50;;;3.53;;
75737;SDS011;64356;45.638;13.764;2023-05-10T08:35:42;15.00;;;3.83;;
75737;SDS011;64356;45.638;13.764;2023-05-10T08:38:08;11.90;;;3.58;;
75737;SDS011;64356;45.638;13.764;2023-05-10T08:40:33;35.35;;;3.40;;
75737;SDS011;64356;45.638;13.764;2023-05-10T08:45:27;12.82;;;3.10;;
75737;SDS011;64356;45.638;13.764;2023-05-10T08:47:57;16.75;;;3.50;;
75737;SDS011;64356;45.638;13.764;2023-05-10T08:50:24;10.57;;;3.47;;
75737;SDS011;64356;45.638;13.764;2023-05-10T08:52:51;15.85;;;4.03;;
75737;SDS011;64356;45.638;13.764;2023-05-10T08:55:20;32.22;;;4.25;;
75737;SDS011;64356;45.638;13.764;2023-05-10T08:57:48;16.58;;;3.97;;
75737;SDS011;64356;45.638;13.764;2023-05-10T09:00:14;25.50;;;5.38;;
75737;SDS011;64356;45.638;13.764;2023-05-10T09:02:41;40.42;;;4.75;;
75737;SDS011;64356;45.638;13.764;2023-05-10T09:05:09;44.80;;;4.95;;
75737;SDS011;64356;45.638;13.764;2023-05-10T09:07:35;34.55;;;4.25;;
75737;SDS011;64356;45.638;13.764;2023-05-10T09:10:02;20.88;;;4.13;;
75737;SDS011;64356;45.638;13.764;2023-05-10T09:12:29;20.70;;;4.18;;
75737;SDS011;64356;45.638;13.764;2023-05-10T09:14:54;20.50;;;4.15;;
75737;SDS011;64356;45.638;13.764;2023-05-10T09:17:23;31.77;;;3.58;;
75737;SDS011;64356;45.638;13.764;2023-05-10T09:19:50;13.38;;;3.78;;
75737;SDS011;64356;45.638;13.764;2023-05-10T09:22:21;9.50;;;3.65;;
75737;SDS011;64356;45.638;13.764;2023-05-10T09:24:48;15.10;;;4.38;;
75737;SDS011;64356;45.638;13.764;2023-05-10T09:27:32;27.73;;;4.22;;
75737;SDS011;64356;45.638;13.764;2023-05-10T09:29:58;9.88;;;3.72;;
75737;SDS011;64356;45.638;13.764;2023-05-10T09:32:40;13.27;;;3.80;;
75737;SDS011;64356;45.638;13.764;2023-05-10T09:35:13;14.43;;;4.05;;
75737;SDS011;64356;45.638;13.764;2023-05-10T09:37:41;13.75;;;3.58;;
75737;SDS011;64356;45.638;13.764;2023-05-10T09:40:11;18.27;;;4.40;;
75737;SDS011;64356;45.638;13.764;2023-05-10T09:45:27;12.52;;;3.92;;
75737;SDS011;64356;45.638;13.764;2023-05-10T09:47:54;8.50;;;3.78;;
75737;SDS011;64356;45.638;13.764;2023-05-10T09:50:21;8.82;;;3.53;;
75737;SDS011;64356;45.638;13.764;2023-05-10T09:52:48;14.48;;;3.92;;
75737;SDS011;64356;45.638;13.764;2023-05-10T09:55:19;21.95;;;3.83;;
75737;SDS011;64356;45.638;13.764;2023-05-10T09:57:46;22.88;;;4.10;;
75737;SDS011;64356;45.638;13.764;2023-05-10T10:00:19;39.53;;;5.55;;
75737;SDS011;64356;45.638;13.764;2023-05-10T10:02:55;14.48;;;3.83;;
75737;SDS011;64356;45.638;13.764;2023-05-10T10:05:29;42.70;;;5.47;;
75737;SDS011;64356;45.638;13.764;2023-05-10T10:07:56;19.58;;;4.70;;
75737;SDS011;64356;45.638;13.764;2023-05-10T10:10:24;30.33;;;4.90;;
75737;SDS011;64356;45.638;13.764;2023-05-10T10:12:50;20.40;;;4.32;;
75737;SDS011;64356;45.638;13.764;2023-05-10T10:15:16;16.85;;;4.05;;
75737;SDS011;64356;45.638;13.764;2023-05-10T10:17:43;18.50;;;3.85;;
75737;SDS011;64356;45.638;13.764;2023-05-10T10:20:09;34.55;;;5.30;;
75737;SDS011;64356;45.638;13.764;2023-05-10T10:22:36;12.68;;;4.18;;
75737;SDS011;64356;45.638;13.764;2023-05-10T10:25:02;23.42;;;3.58;;
75737;SDS011;64356;45.638;13.764;2023-05-10T10:35:31;9.35;;;3.65;;
75737;SDS011;64356;45.638;13.764;2023-05-10T10:37:57;10.95;;;3.80;;
75737;SDS011;64356;45.638;13.764;2023-05-10T10:40:27;11.82;;;3.65;;
75737;SDS011;64356;45.638;13.764;2023-05-10T10:42:54;8.52;;;3.70;;
75737;SDS011;64356;45.638;13.764;2023-05-10T10:45:21;14.10;;;3.90;;
75737;SDS011;64356;45.638;13.764;2023-05-10T10:47:48;11.73;;;3.28;;
75737;SDS011;64356;45.638;13.764;2023-05-10T10:50:18;7.30;;;3.97;;
75737;SDS011;64356;45.638;13.764;2023-05-10T10:52:45;9.10;;;3.50;;
75737;SDS011;64356;45.638;13.764;2023-05-10T10:55:12;8.38;;;4.05;;
75737;SDS011;64356;45.638;13.764;2023-05-10T10:57:51;10.60;;;4.00;;
75737;SDS011;64356;45.638;13.764;2023-05-10T11:00:27;9.35;;;4.22;;
75737;SDS011;64356;45.638;13.764;2023-05-10T11:02:54;19.38;;;4.03;;
75737;SDS011;64356;45.638;13.764;2023-05-10T11:08:07;19.40;;;4.28;;
75737;SDS011;64356;45.638;13.764;2023-05-10T11:10:37;24.65;;;4.50;;
75737;SDS011;64356;45.638;13.764;2023-05-10T11:13:08;15.63;;;4.88;;
75737;SDS011;64356;45.638;13.764;2023-05-10T11:15:35;13.85;;;4.32;;
75737;SDS011;64356;45.638;13.764;2023-05-10T11:20:52;26.42;;;4.45;;
75737;SDS011;64356;45.638;13.764;2023-05-10T11:23:22;8.10;;;4.18;;
75737;SDS011;64356;45.638;13.764;2023-05-10T11:25:48;13.80;;;4.47;;
75737;SDS011;64356;45.638;13.764;2023-05-10T11:28:16;8.63;;;3.42;;
75737;SDS011;64356;45.638;13.764;2023-05-10T11:30:43;12.57;;;3.92;;
75737;SDS011;64356;45.638;13.764;2023-05-10T11:33:14;37.20;;;4.97;;
75737;SDS011;64356;45.638;13.764;2023-05-10T11:35:41;27.92;;;4.95;;
75737;SDS011;64356;45.638;13.764;2023-05-10T11:38:07;11.68;;;4.32;;
75737;SDS011;64356;45.638;13.764;2023-05-10T11:40:34;17.95;;;3.97;;
75737;SDS011;64356;45.638;13.764;2023-05-10T11:43:00;38.78;;;4.18;;
75737;SDS011;64356;45.638;13.764;2023-05-10T11:45:27;5.28;;;3.67;;
75737;SDS011;64356;45.638;13.764;2023-05-10T11:47:56;8.48;;;3.80;;
75737;SDS011;64356;45.638;13.764;2023-05-10T11:50:23;19.00;;;4.88;;
75737;SDS011;64356;45.638;13.764;2023-05-10T11:52:52;34.47;;;5.75;;
75737;SDS011;64356;45.638;13.764;2023-05-10T11:55:19;19.77;;;4.43;;
75737;SDS011;64356;45.638;13.764;2023-05-10T11:57:45;20.98;;;4.65;;
75737;SDS011;64356;45.638;13.764;2023-05-10T12:00:12;13.35;;;4.72;;
75737;SDS011;64356;45.638;13.764;2023-05-10T12:02:38;16.17;;;4.32;;
75737;SDS011;64356;45.638;13.764;2023-05-10T12:05:04;9.27;;;4.30;;
75737;SDS011;64356;45.638;13.764;2023-05-10T12:07:34;10.52;;;3.72;;
75737;SDS011;64356;45.638;13.764;2023-05-10T12:12:39;16.05;;;3.80;;
75737;SDS011;64356;45.638;13.764;2023-05-10T12:17:45;7.75;;;3.78;;
75737;SDS011;64356;45.638;13.764;2023-05-10T12:20:20;9.00;;;4.38;;
75737;SDS011;64356;45.638;13.764;2023-05-10T12:22:51;5.50;;;3.42;;
75737;SDS011;64356;45.638;13.764;2023-05-10T12:25:20;11.13;;;3.95;;
75737;SDS011;64356;45.638;13.764;2023-05-10T12:27:50;9.35;;;3.95;;
75737;SDS011;64356;45.638;13.764;2023-05-10T12:30:21;20.08;;;3.90;;
75737;SDS011;64356;45.638;13.764;2023-05-10T12:32:51;14.52;;;4.28;;
75737;SDS011;64356;45.638;13.764;2023-05-10T12:35:17;8.90;;;4.10;;
75737;SDS011;64356;45.638;13.764;2023-05-10T12:37:47;11.30;;;3.40;;
75737;SDS011;64356;45.638;13.764;2023-05-10T12:40:13;10.32;;;4.18;;
75737;SDS011;64356;45.638;13.764;2023-05-10T12:42:39;8.77;;;4.40;;
75737;SDS011;64356;45.638;13.764;2023-05-10T12:45:05;10.52;;;3.75;;
75737;SDS011;64356;45.638;13.764;2023-05-10T12:47:32;8.10;;;3.75;;
75737;SDS011;64356;45.638;13.764;2023-05-10T12:49:59;12.63;;;3.65;;
75737;SDS011;64356;45.638;13.764;2023-05-10T12:52:26;21.13;;;4.43;;
75737;SDS011;64356;45.638;13.764;2023-05-10T12:54:52;8.85;;;4.35;;
75737;SDS011;64356;45.638;13.764;2023-05-10T12:57:19;23.73;;;4.53;;
75737;SDS011;64356;45.638;13.764;2023-05-10T12:59:46;18.63;;;4.55;;
75737;SDS011;64356;45.638;13.764;2023-05-10T13:02:11;15.18;;;4.18;;
75737;SDS011;64356;45.638;13.764;2023-05-10T13:04:38;12.75;;;4.13;;
75737;SDS011;64356;45.638;13.764;2023-05-10T13:07:07;11.98;;;4.45;;
75737;SDS011;64356;45.638;13.764;2023-05-10T13:09:33;17.88;;;4.32;;
75737;SDS011;64356;45.638;13.764;2023-05-10T13:11:59;22.42;;;5.00;;
75737;SDS011;64356;45.638;13.764;2023-05-10T13:14:25;19.17;;;4.00;;
75737;SDS011;64356;45.638;13.764;2023-05-10T13:16:51;38.03;;;5.18;;
75737;SDS011;64356;45.638;13.764;2023-05-10T13:19:17;38.15;;;5.47;;
75737;SDS011;64356;45.638;13.764;2023-05-10T13:21:43;31.52;;;4.75;;
75737;SDS011;64356;45.638;13.764;2023-05-10T13:24:09;24.58;;;5.10;;
75737;SDS011;64356;45.638;13.764;2023-05-10T13:26:38;13.32;;;4.80;;
75737;SDS011;64356;45.638;13.764;2023-05-10T13:29:05;13.18;;;4.45;;
75737;SDS011;64356;45.638;13.764;2023-05-10T13:31:30;30.77;;;5.28;;
75737;SDS011;64356;45.638;13.764;2023-05-10T13:33:56;17.27;;;4.50;;
75737;SDS011;64356;45.638;13.764;2023-05-10T13:36:22;15.52;;;4.13;;
75737;SDS011;64356;45.638;13.764;2023-05-10T13:38:47;16.35;;;5.13;;
75737;SDS011;64356;45.638;13.764;2023-05-10T13:41:13;19.13;;;5.10;;
75737;SDS011;64356;45.638;13.764;2023-05-10T13:43:39;8.73;;;4.10;;
75737;SDS011;64356;45.638;13.764;2023-05-10T13:46:05;24.25;;;4.68;;
75737;SDS011;64356;45.638;13.764;2023-05-10T13:48:30;8.73;;;4.47;;
75737;SDS011;64356;45.638;13.764;2023-05-10T13:50:56;7.70;;;3.53;;
75737;SDS011;64356;45.638;13.764;2023-05-10T13:53:22;9.85;;;3.67;;
75737;SDS011;64356;45.638;13.764;2023-05-10T13:55:48;13.57;;;4.00;;
75737;SDS011;64356;45.638;13.764;2023-05-10T13:58:14;14.10;;;4.22;;
75737;SDS011;64356;45.638;13.764;2023-05-10T14:00:39;4.88;;;3.80;;
75737;SDS011;64356;45.638;13.764;2023-05-10T14:03:05;13.00;;;4.00;;
75737;SDS011;64356;45.638;13.764;2023-05-10T14:05:32;12.70;;;3.95;;
75737;SDS011;64356;45.638;13.764;2023-05-10T14:07:58;4.45;;;3.33;;
75737;SDS011;64356;45.638;13.764;2023-05-10T14:10:23;9.73;;;3.30;;
75737;SDS011;64356;45.638;13.764;2023-05-10T14:12:50;6.97;;;3.72;;
75737;SDS011;64356;45.638;13.764;2023-05-10T14:15:15;3.92;;;3.55;;
75737;SDS011;64356;45.638;13.764;2023-05-10T14:17:41;9.35;;;3.70;;
75737;SDS011;64356;45.638;13.764;2023-05-10T14:20:07;6.28;;;3.35;;
75737;SDS011;64356;45.638;13.764;2023-05-10T14:22:33;7.32;;;4.30;;
75737;SDS011;64356;45.638;13.764;2023-05-10T14:24:59;7.70;;;3.55;;
75737;SDS011;64356;45.638;13.764;2023-05-10T14:27:25;4.43;;;3.85;;
75737;SDS011;64356;45.638;13.764;2023-05-10T14:29:51;3.92;;;3.53;;
75737;SDS011;64356;45.638;13.764;2023-05-10T14:32:18;5.55;;;4.03;;
75737;SDS011;64356;45.638;13.764;2023-05-10T14:34:43;7.53;;;3.90;;
75737;SDS011;64356;45.638;13.764;2023-05-10T14:37:10;7.78;;;3.72;;
75737;SDS011;64356;45.638;13.764;2023-05-10T14:39:36;3.55;;;3.25;;
75737;SDS011;64356;45.638;13.764;2023-05-10T14:42:02;6.63;;;3.78;;
75737;SDS011;64356;45.638;13.764;2023-05-10T14:44:28;8.52;;;3.85;;
75737;SDS011;64356;45.638;13.764;2023-05-10T14:46:54;6.25;;;3.70;;
75737;SDS011;64356;45.638;13.764;2023-05-10T14:49:21;4.60;;;3.67;;
75737;SDS011;64356;45.638;13.764;2023-05-10T14:51:49;7.63;;;3.60;;
75737;SDS011;64356;45.638;13.764;2023-05-10T14:54:15;4.40;;;3.85;;
75737;SDS011;64356;45.638;13.764;2023-05-10T14:56:41;5.15;;;3.45;;
75737;SDS011;64356;45.638;13.764;2023-05-10T14:59:07;3.90;;;3.50;;
75737;SDS011;64356;45.638;13.764;2023-05-10T15:01:33;8.32;;;4.22;;
75737;SDS011;64356;45.638;13.764;2023-05-10T15:04:02;8.20;;;4.30;;
75737;SDS011;64356;45.638;13.764;2023-05-10T15:06:31;6.50;;;3.80;;
75737;SDS011;64356;45.638;13.764;2023-05-10T15:08:58;6.28;;;4.03;;
75737;SDS011;64356;45.638;13.764;2023-05-10T15:11:25;6.95;;;3.95;;
75737;SDS011;64356;45.638;13.764;2023-05-10T15:13:50;5.07;;;3.90;;
75737;SDS011;64356;45.638;13.764;2023-05-10T15:16:16;7.00;;;4.03;;
75737;SDS011;64356;45.638;13.764;2023-05-10T15:18:42;5.68;;;3.80;;
75737;SDS011;64356;45.638;13.764;2023-05-10T15:21:08;12.15;;;4.20;;